Norris Rancho Marino Reserve, California Weather observations

Data are for 10 minute period ending at time listed.
 Day   Time   Solar   Ave.   Ave.  Ave.  Vector  Max.   Baro.   Total    
  of    of     Rad.   Air    Rel.  Wind   Wind   Wind  Press.  Precip.   
Year   Day            Temp.  Hum.  Speed  Dir.   Gust                    
2016   (PST)  Kw/m2    F      %     mph   deg.    mph    mb.     in.     
-------------------------------------------------------------------------
 243    5:10   0.00   54.8    92    4.1   120     5.5   1009.6    0.00 
 243    5:20   0.00   54.6    92    3.4   117     4.7   1009.7    0.00 
 243    5:30   0.00   54.6    93    1.9   100     2.6   1009.7    0.00 
 243    5:40   0.00   54.2    92    2.1    31     3.1   1009.7    0.00 
 243    5:50   0.01   54.3    92    1.2   325     2.2   1009.7    0.00 
 243    6:00   0.01   54.7    92    2.3    45     4.3   1009.7    0.00 
 243    6:10   0.03   54.5    92    0.9    24     2.3   1009.8    0.00 
 243    6:20   0.03   55.2    92    2.0   301     3.8   1010.1    0.00 
 243    6:30   0.03   55.4    92    1.6   346     3.1   1010.2    0.00 
 243    6:40   0.05   55.8    92    3.2   346     5.8   1010.2    0.00 
 243    6:50   0.11   56.9    91    2.2   310     3.3   1010.0    0.00 
 243    7:00   0.16   57.6    91    2.2   300     3.4   1010.3    0.00 
 243    7:10   0.19   57.9    90    1.8   254     3.5   1010.6    0.00 
 243    7:20   0.22   58.0    90    2.0   265     4.0   1011.0    0.00 
 243    7:30   0.25   59.1    90    0.6   235     2.5   1011.0    0.00 
 243    7:40   0.28   58.5    88    2.6   266     4.3   1011.2    0.00 
 243    7:50   0.33   59.2    88    2.2   253     5.2   1011.1    0.00 
 243    8:00   0.25   58.8    88    3.9   279     5.4   1011.2    0.00 
 243    8:10   0.37   59.0    88    3.7   284     5.3   1011.2    0.00 
 243    8:20   0.42   60.2    87    2.7   259     4.7   1011.1    0.00 
 243    8:30   0.45   60.0    86    3.4   254     5.6   1011.1    0.00 
 243    8:40   0.47   60.3    86    5.7   278     8.5   1011.1    0.00 
 243    8:50   0.50   59.7    86    8.6   285    10.4   1011.1    0.00 
 243    9:00   0.53   60.0    85    7.8   285    10.6   1011.1    0.00 
 243    9:10   0.56   60.8    83    8.4   281    10.2   1011.1    0.00 
 243    9:20   0.59   60.0    84    7.6   281     9.8   1011.1    0.00 
 243    9:30   0.62   60.4    84    7.4   280     9.7   1011.1    0.00 
 243    9:40   0.65   60.2    84    8.5   284    10.6   1011.2    0.00 
 243    9:50   0.67   60.2    83    9.1   284    11.2   1011.3    0.00 
 243   10:00   0.69   60.2    83    9.7   287    12.8   1011.3    0.00 
 243   10:10   0.71   60.8    82   10.2   288    13.2   1011.3    0.00 
 243   10:20   0.73   61.5    80   11.6   287    14.3   1011.2    0.00 
 243   10:30   0.75   62.0    78   11.2   287    13.4   1011.0    0.00 
 243   10:40   0.77   61.5    79   11.7   284    14.1   1010.9    0.00 
 243   10:50   0.78   61.6    79   12.2   285    15.8   1010.9    0.00 
 243   11:00   0.80   62.2    78   14.1   289    18.3   1010.8    0.00 
 243   11:10   0.81   63.2    75   14.3   293    18.7   1010.7    0.00 
 243   11:20   0.82   63.3    75   14.8   294    20.0   1010.6    0.00 
 243   11:30   0.83   62.4    77   16.1   291    20.0   1010.5    0.00 
 243   11:40   0.83   62.7    76   16.1   292    20.1   1010.5    0.00 
 243   11:50   0.84   63.7    74   15.3   293    21.1   1010.5    0.00 
 243   12:00   0.84   63.9    74   15.6   295    23.4   1010.5    0.00 
 243   12:10   0.84   63.1    75   17.7   301    23.9   1010.4    0.00 
 243   12:20   0.84   63.0    75   17.3   299    23.1   1010.3    0.00 
 243   12:30   0.84   63.4    75   16.4   294    22.1   1010.3    0.00 
 243   12:40   0.84   63.7    74   16.8   293    22.1   1010.1    0.00 
 243   12:50   0.83   63.6    75   16.2   297    23.6   1010.1    0.00 
 243   13:00   0.83   63.3    75   16.8   294    22.7   1010.0    0.00 
 243   13:10   0.82   64.7    72   15.0   299    23.8   1009.8    0.00 
 243   13:20   0.81   63.6    74   17.7   299    24.2   1009.7    0.00 
 243   13:30   0.80   63.4    75   17.5   299    23.3   1009.6    0.00 
 243   13:40   0.79   63.4    75   17.9   300    24.1   1009.4    0.00 
 243   13:50   0.77   63.5    75   16.6   300    23.2   1009.2    0.00 
 243   14:00   0.76   63.6    75   17.4   304    23.3   1009.0    0.00 
 243   14:10   0.74   63.8    74   16.5   305    23.5   1008.9    0.00 
 243   14:20   0.68   63.6    75   16.3   301    22.5   1008.8    0.00 
 243   14:30   0.70   63.3    76   17.8   303    25.4   1008.8    0.00 
 243   14:40   0.68   63.6    75   15.9   308    21.2   1008.6    0.00 
 243   14:50   0.66   64.3    73   15.6   302    24.4   1008.4    0.00 
 243   15:00   0.63   63.7    74   16.1   308    24.5   1008.4    0.00 
 243   15:10   0.61   64.1    74   13.9   304    20.5   1008.4    0.00 
 243   15:20   0.58   63.6    74   15.4   302    22.4   1008.3    0.00 
 243   15:30   0.55   62.5    77   17.2   304    23.7   1008.3    0.00 
 243   15:40   0.53   63.1    76   15.4   304    23.8   1008.3    0.00 
 243   15:50   0.50   62.8    76   18.0   308    24.8   1008.3    0.00 
 243   16:00   0.47   63.3    74   15.5   311    21.9   1008.2    0.00 
 243   16:10   0.43   62.8    76   15.9   310    22.5   1008.2    0.00 
 243   16:20   0.40   62.5    76   17.6   308    26.1   1008.2    0.00 
 243   16:30   0.37   62.1    77   17.9   309    25.1   1008.2    0.00 
 243   16:40   0.34   62.2    77   15.7   309    22.4   1008.2    0.00 
 243   16:50   0.30   62.3    76   15.9   307    23.5   1008.2    0.00 
 243   17:00   0.27   62.4    76   15.7   306    22.2   1008.3    0.00 
 243   17:10   0.21   61.7    77   17.2   307    25.1   1008.3    0.00 
 243   17:20   0.21   61.2    78   16.3   311    24.5   1008.4    0.00 
 243   17:30   0.20   61.4    78   14.2   308    21.2   1008.4    0.00 
 243   17:40   0.16   61.0    79   16.0   304    23.5   1008.4    0.00 
 243   17:50   0.12   60.6    80   14.7   313    20.9   1008.4    0.00 
 243   18:00   0.09   60.3    80   16.0   307    22.9   1008.2    0.00 
 243   18:10   0.06   59.9    81   15.4   310    22.1   1008.2    0.00 
 243   18:20   0.04   59.8    81   14.4   314    20.0   1008.0    0.00 
 243   18:30   0.01   59.5    82   12.7   318    17.5   1008.0    0.00 
 243   18:40   0.00   59.4    81   14.7   313    20.6   1008.0    0.00 
 243   18:50   0.00   59.3    81   13.5   315    20.4   1008.0    0.00 
 243   19:00   0.00   59.2    82   12.7   316    18.2   1008.1    0.00 
 243   19:10   0.00   59.0    82   13.9   315    21.1   1008.2    0.00 
 243   19:20   0.00   58.8    83   12.1   316    18.3   1008.3    0.00 
 243   19:30   0.00   59.0    82    9.5   320    16.1   1008.2    0.00 
 243   19:40   0.00   59.2    81    8.3   322    12.3   1008.1    0.00 
 243   19:50   0.00   58.8    81    4.2   326     8.0   1008.2    0.00 
 243   20:00   0.00   58.0    82    4.1   316    10.2   1008.3    0.00 
 243   20:10   0.00   58.3    83    5.8   313     9.0   1008.5    0.00 
 243   20:20   0.00   58.1    83    5.0   323     8.3   1008.7    0.00 
 243   20:30   0.00   57.9    83    4.2   316     8.0   1008.8    0.00 
 243   20:40   0.00   57.9    84    6.5   317    11.7   1008.9    0.00 
 243   20:50   0.00   58.0    85    6.2   333    10.7   1008.8    0.00 
 243   21:00   0.00   58.2    83    3.4   311     6.8   1008.8    0.00 
 243   21:10   0.00   57.0    84    1.1    50     2.5   1008.7    0.00 
 243   21:20   0.00   56.4    85    1.2    44     3.1   1008.6    0.00 
 243   21:30   0.00   55.7    85    1.8    33     3.0   1008.6    0.00 
 243   21:40   0.00   55.8    86    1.9    43     3.1   1008.4    0.00 
 243   21:50   0.00   55.8    86    2.3    45     3.7   1008.3    0.00 
 243   22:00   0.00   55.9    85    2.5   107     3.9   1008.3    0.00 
 243   22:10   0.00   56.6    85    2.6   115     4.7   1008.3    0.00 
 243   22:20   0.00   56.9    85    3.9   115     6.4   1008.3    0.00 
 243   22:30   0.00   56.6    87    2.7   122     4.3   1008.6    0.00 
 243   22:40   0.00   56.1    88    1.7   107     3.2   1008.7    0.00 
 243   22:50   0.00   55.8    88    1.9    50     3.1   1008.8    0.00 
 243   23:00   0.00   55.1    88    2.3    46     3.3   1008.9    0.00 
 243   23:10   0.00   55.2    89    1.4   315     3.7   1008.9    0.00 
 243   23:20   0.00   55.5    89    2.6   331     4.7   1008.9    0.00 
 243   23:30   0.00   55.4    89    1.7    19     3.4   1008.8    0.00 
 243   23:40   0.00   54.4    89    1.5    24     3.7   1008.7    0.00 
 243   23:50   0.00   54.2    90    2.4   336     3.4   1008.7    0.00 
 244    0:00   0.00   53.7    90    3.1    28     4.8   1008.5    0.00 
 244    0:10   0.00   53.7    90    2.6    25     4.4   1008.4    0.00 
 244    0:20   0.00   54.0    91    3.4   353     4.8   1008.4    0.00 
 244    0:30   0.00   53.4    90    3.3    49     4.8   1008.4    0.00 
 244    0:40   0.00   53.5    90    1.2    24     2.5   1008.4    0.00 
 244    0:50   0.00   54.0    91    2.5    17     4.2   1008.3    0.00 
 244    1:00   0.00   53.7    90    2.4    31     3.7   1008.3    0.00 
 244    1:10   0.00   53.6    91    2.4    28     5.0   1008.2    0.00 
 244    1:20   0.00   53.3    91    2.3    43     4.5   1008.0    0.00 
 244    1:30   0.00   53.5    91    1.1    24     2.4   1008.0    0.00 
 244    1:40   0.00   53.6    92    0.9    35     2.1   1008.0    0.00 
 244    1:50   0.00   53.8    92    1.4    54     3.7   1008.0    0.00 
 244    2:00   0.00   53.5    92    3.8    54     5.8   1007.9    0.00 
 244    2:10   0.00   53.0    92    2.2     2     4.2   1008.0    0.00 
 244    2:20   0.00   53.4    92    1.5   358     2.5   1008.0    0.00 
 244    2:30   0.00   53.9    92    2.6   343     3.9   1008.0    0.00 
 244    2:40   0.00   53.5    93    1.8    17     3.5   1007.9    0.00 
 244    2:50   0.00   53.4    92    1.0   358     2.7   1007.8    0.00 
 244    3:00   0.00   53.1    92    2.0    35     3.7   1007.9    0.00 
 244    3:10   0.00   52.5    92    3.1    36     4.3   1007.8    0.00 
 244    3:20   0.00   53.2    93    1.9    35     4.1   1007.7    0.00 
 244    3:30   0.00   53.3    93    2.3    52     4.5   1007.7    0.00 
 244    3:40   0.00   52.6    93    3.1    63     5.3   1007.7    0.00 
 244    3:50   0.00   53.2    93    1.1     8     3.5   1007.7    0.00 
 244    4:00   0.00   53.6    93    1.9   122     2.8   1007.6    0.00 
 244    4:10   0.00   53.8    93    1.9   100     3.1   1007.7    0.00 
 244    4:20   0.00   53.8    93    2.6    95     4.5   1007.8    0.00 
 244    4:30   0.00   54.0    93    2.1   106     3.5   1007.9    0.00 
 244    4:40   0.00   53.9    93    2.0   112     2.9   1007.8    0.00 
 244    4:50   0.00   53.7    93    2.5   100     3.4   1007.9    0.00 
 244    5:00   0.00   53.4    93    1.6    88     2.9   1007.9    0.00 

Return to Norris Rancho Marino Reserve graphs page.


Western Regional Climate Center,wrcc@dri.edu